createdAt,value
2019-05-03T00:02:12.354Z,10.80
2019-05-03T00:04:45.674Z,10.90
2019-05-03T00:07:17.236Z,10.90
2019-05-03T00:09:48.751Z,11.00
2019-05-03T00:12:22.146Z,11.00
2019-05-03T00:14:57.429Z,11.00
2019-05-03T00:17:28.714Z,10.90
2019-05-03T00:20:02.318Z,11.00
2019-05-03T00:22:34.555Z,11.00
2019-05-03T00:25:08.472Z,11.10
2019-05-03T00:27:39.177Z,11.10
2019-05-03T00:30:11.991Z,11.10
2019-05-03T00:32:43.320Z,11.10
2019-05-03T00:35:19.329Z,11.20
2019-05-03T00:37:52.864Z,11.30
2019-05-03T00:40:32.258Z,11.30
2019-05-03T00:43:03.299Z,11.30
2019-05-03T00:45:34.819Z,11.30
2019-05-03T00:48:06.299Z,11.30
2019-05-03T00:50:37.765Z,11.20
2019-05-03T00:53:08.982Z,11.20
2019-05-03T00:55:41.971Z,11.20
2019-05-03T00:58:13.526Z,11.20
2019-05-03T01:00:45.057Z,11.30
2019-05-03T01:03:16.174Z,11.40
2019-05-03T01:05:47.275Z,11.30
2019-05-03T01:08:18.493Z,11.20
2019-05-03T01:10:51.636Z,11.10
2019-05-03T01:13:23.113Z,11.00
2019-05-03T01:16:02.778Z,10.90
2019-05-03T01:18:34.204Z,10.90
2019-05-03T01:21:05.452Z,10.90
2019-05-03T01:23:36.977Z,10.80
2019-05-03T01:26:08.312Z,10.70
2019-05-03T01:28:39.508Z,10.80
2019-05-03T01:31:11.968Z,10.80
2019-05-03T01:33:43.284Z,10.70
2019-05-03T01:36:14.645Z,10.80
2019-05-03T01:38:46.541Z,10.70
2019-05-03T01:41:18.241Z,10.70
2019-05-03T01:43:49.864Z,10.70
2019-05-03T01:46:22.838Z,10.60
2019-05-03T01:49:22.874Z,10.70
2019-05-03T01:52:13.500Z,10.60
2019-05-03T01:54:45.012Z,10.60
2019-05-03T01:57:17.206Z,10.60
2019-05-03T01:59:49.058Z,10.70
2019-05-03T02:02:42.600Z,10.70
2019-05-03T02:05:33.103Z,10.70
2019-05-03T02:08:04.396Z,10.70
2019-05-03T02:10:36.326Z,10.80
2019-05-03T02:13:07.595Z,10.70
2019-05-03T02:15:39.309Z,10.70
2019-05-03T02:18:14.784Z,10.70
2019-05-03T02:20:44.910Z,10.70
2019-05-03T02:23:16.725Z,10.50
2019-05-03T02:25:56.201Z,10.50
2019-05-03T02:28:22.052Z,10.60
2019-05-03T02:30:54.702Z,10.60
2019-05-03T02:33:26.037Z,10.50
2019-05-03T02:35:57.270Z,10.50
2019-05-03T02:38:29.087Z,10.40
2019-05-03T02:41:02.688Z,10.50
2019-05-03T02:43:45.246Z,10.40
2019-05-03T02:46:38.622Z,10.50
2019-05-03T02:49:29.111Z,10.60
2019-05-03T02:52:00.270Z,10.60
2019-05-03T02:54:35.118Z,10.60
2019-05-03T02:57:06.301Z,10.60
2019-05-03T02:59:38.275Z,10.70
2019-05-03T03:02:09.511Z,10.80
2019-05-03T03:04:40.884Z,10.80
2019-05-03T03:07:15.152Z,10.90
2019-05-03T03:09:47.229Z,10.80
2019-05-03T03:12:21.073Z,10.70
2019-05-03T03:14:56.584Z,10.70
2019-05-03T03:17:36.454Z,10.60
2019-05-03T03:20:10.977Z,10.60
2019-05-03T03:22:46.693Z,10.60
2019-05-03T03:25:25.583Z,10.50
2019-05-03T03:28:01.590Z,10.50
2019-05-03T03:31:20.613Z,10.60
2019-05-03T03:33:51.797Z,10.60
2019-05-03T03:36:46.008Z,10.60
2019-05-03T03:38:57.046Z,10.60
2019-05-03T03:41:29.870Z,10.60
2019-05-03T03:44:05.816Z,10.60
2019-05-03T03:46:38.153Z,10.50
2019-05-03T03:49:10.529Z,10.50
2019-05-03T03:51:42.684Z,10.50
2019-05-03T03:54:19.262Z,10.50
2019-05-03T03:57:03.810Z,10.40
2019-05-03T03:59:31.611Z,10.40
2019-05-03T04:02:05.948Z,10.40
2019-05-03T04:04:37.469Z,10.40
2019-05-03T04:07:09.195Z,10.40
2019-05-03T04:09:45.722Z,10.30
2019-05-03T04:12:17.203Z,10.20
2019-05-03T04:15:05.708Z,10.20
2019-05-03T04:17:58.995Z,10.20
2019-05-03T04:20:36.080Z,10.20
2019-05-03T04:23:07.391Z,10.10
2019-05-03T04:25:39.239Z,10.20
2019-05-03T04:28:11.419Z,10.20
2019-05-03T04:30:45.749Z,10.20
2019-05-03T04:33:16.148Z,10.20
2019-05-03T04:35:47.478Z,10.40
2019-05-03T04:38:18.720Z,10.40
2019-05-03T04:40:49.787Z,10.20
2019-05-03T04:43:21.842Z,10.00
2019-05-03T04:46:12.911Z,9.80
2019-05-03T04:48:44.926Z,9.60
2019-05-03T04:51:16.844Z,9.40
2019-05-03T04:54:07.075Z,9.20
2019-05-03T04:56:38.420Z,9.00
2019-05-03T04:59:09.998Z,9.00
2019-05-03T05:01:41.354Z,9.00
2019-05-03T05:04:12.905Z,9.10
2019-05-03T05:06:45.019Z,9.10
2019-05-03T05:09:16.365Z,9.10
2019-05-03T05:11:47.435Z,9.10
2019-05-03T05:14:18.979Z,9.00
2019-05-03T05:16:50.518Z,9.00
2019-05-03T05:19:29.520Z,9.00
2019-05-03T05:22:05.967Z,9.00
2019-05-03T05:24:37.311Z,9.00
2019-05-03T05:27:25.421Z,9.00
2019-05-03T05:29:57.275Z,9.00
2019-05-03T05:32:28.996Z,9.00
2019-05-03T05:35:00.253Z,9.00
2019-05-03T05:37:31.418Z,9.00
2019-05-03T05:40:02.970Z,9.00
2019-05-03T05:42:35.062Z,9.00
2019-05-03T05:45:07.305Z,9.00
2019-05-03T05:47:44.868Z,9.00
2019-05-03T05:50:22.250Z,9.00
2019-05-03T05:52:55.187Z,8.90
2019-05-03T05:55:51.980Z,8.90
2019-05-03T05:58:31.276Z,8.90
2019-05-03T06:01:07.136Z,8.80
2019-05-03T06:03:38.397Z,8.70
2019-05-03T06:06:12.823Z,8.70
2019-05-03T06:08:52.235Z,8.80
2019-05-03T06:11:29.290Z,8.80
2019-05-03T06:14:05.361Z,8.90
2019-05-03T06:16:46.869Z,8.90
2019-05-03T06:19:49.380Z,9.00
2019-05-03T06:22:34.544Z,9.00
2019-05-03T06:25:16.571Z,9.00
2019-05-03T06:27:47.549Z,9.00
2019-05-03T06:30:38.117Z,8.90
2019-05-03T06:33:09.699Z,8.90
2019-05-03T06:35:40.836Z,8.90
2019-05-03T06:38:19.051Z,8.90
2019-05-03T06:40:50.595Z,8.90
2019-05-03T06:43:22.096Z,9.00
2019-05-03T06:45:54.838Z,8.90
2019-05-03T06:48:28.173Z,8.90
2019-05-03T06:51:04.655Z,8.90
2019-05-03T06:53:34.518Z,9.00
2019-05-03T06:56:06.284Z,9.10
2019-05-03T06:58:37.844Z,9.10
2019-05-03T07:01:17.315Z,9.20
2019-05-03T07:04:02.603Z,9.10
2019-05-03T07:06:44.992Z,9.20
2019-05-03T07:09:30.901Z,9.20
2019-05-03T07:12:04.497Z,9.20
2019-05-03T07:14:35.792Z,9.20
2019-05-03T07:17:07.653Z,9.20
2019-05-03T07:19:39.053Z,9.10
2019-05-03T07:22:10.170Z,9.20
2019-05-03T07:24:41.261Z,9.20
2019-05-03T07:27:12.567Z,9.20
2019-05-03T07:29:44.551Z,9.10
2019-05-03T07:32:15.875Z,9.00
2019-05-03T07:34:46.947Z,9.00
2019-05-03T07:37:18.701Z,9.00
2019-05-03T07:39:50.250Z,9.00
2019-05-03T07:42:21.358Z,9.00
2019-05-03T07:44:52.866Z,9.00
2019-05-03T07:47:24.664Z,9.00
2019-05-03T07:49:56.269Z,9.00
2019-05-03T07:52:27.686Z,9.00
2019-05-03T07:54:58.915Z,9.00
2019-05-03T07:57:38.818Z,8.90
2019-05-03T08:00:14.814Z,9.00
2019-05-03T08:02:46.058Z,9.20
2019-05-03T08:05:17.251Z,9.40
2019-05-03T08:07:48.949Z,9.50
2019-05-03T08:10:20.584Z,9.60
2019-05-03T08:12:51.817Z,9.50
2019-05-03T08:15:24.554Z,9.50
2019-05-03T08:17:55.966Z,9.50
2019-05-03T08:20:27.295Z,9.30
2019-05-03T08:22:58.795Z,9.20
2019-05-03T08:25:30.142Z,9.10
2019-05-03T08:28:01.316Z,8.90
2019-05-03T08:30:44.516Z,8.60
2019-05-03T08:33:25.067Z,8.50
2019-05-03T08:35:57.083Z,8.50
2019-05-03T08:38:28.585Z,8.40
2019-05-03T08:41:01.716Z,8.30
2019-05-03T08:43:32.832Z,8.40
2019-05-03T08:46:04.621Z,8.40
2019-05-03T08:48:35.869Z,8.60
2019-05-03T08:51:07.446Z,8.60
2019-05-03T08:53:38.641Z,8.60
2019-05-03T08:56:09.920Z,8.60
2019-05-03T08:58:41.025Z,8.60
2019-05-03T09:01:14.625Z,8.60
2019-05-03T09:03:45.935Z,8.60
2019-05-03T09:06:17.109Z,8.50
2019-05-03T09:08:48.511Z,8.50
2019-05-03T09:11:30.610Z,8.50
2019-05-03T09:13:58.160Z,8.50
2019-05-03T09:16:29.372Z,8.60
2019-05-03T09:19:00.882Z,8.60
2019-05-03T09:21:34.620Z,8.70
2019-05-03T09:24:05.390Z,8.70
2019-05-03T09:26:36.585Z,8.70
2019-05-03T09:29:07.847Z,8.70
2019-05-03T09:31:40.595Z,8.50
2019-05-03T09:34:11.902Z,8.50
2019-05-03T09:36:44.835Z,8.40
2019-05-03T09:39:17.713Z,8.50
2019-05-03T09:41:48.984Z,8.40
2019-05-03T09:44:20.161Z,8.40
2019-05-03T09:46:51.473Z,8.50
2019-05-03T09:49:22.736Z,8.60
2019-05-03T09:51:54.842Z,8.50
2019-05-03T09:54:38.796Z,8.30
2019-05-03T09:57:09.917Z,8.30
2019-05-03T09:59:53.568Z,8.30
2019-05-03T10:02:15.146Z,8.20
2019-05-03T10:04:46.578Z,8.30
2019-05-03T10:07:18.154Z,8.50
2019-05-03T10:09:49.703Z,8.40
2019-05-03T10:12:25.305Z,8.60
2019-05-03T10:14:56.466Z,8.50
2019-05-03T10:17:55.294Z,8.60
2019-05-03T10:20:27.625Z,8.80
2019-05-03T10:23:06.384Z,8.90
2019-05-03T10:25:40.195Z,9.00
2019-05-03T10:28:10.921Z,9.00
2019-05-03T10:30:47.863Z,9.00
2019-05-03T10:33:26.087Z,9.20
2019-05-03T10:35:56.836Z,9.50
2019-05-03T10:38:28.033Z,9.60
2019-05-03T10:40:59.546Z,9.60
2019-05-03T10:43:31.122Z,9.70
2019-05-03T10:46:04.957Z,9.80
2019-05-03T10:48:35.949Z,9.80
2019-05-03T10:51:07.507Z,9.90
2019-05-03T10:53:42.398Z,10.00
2019-05-03T10:56:24.420Z,9.90
2019-05-03T10:58:58.924Z,9.70
2019-05-03T11:01:37.592Z,9.80
2019-05-03T11:04:09.089Z,9.60
2019-05-03T11:06:40.710Z,9.70
2019-05-03T11:09:12.094Z,9.80
2019-05-03T11:11:45.173Z,9.90
2019-05-03T11:14:16.920Z,10.10
2019-05-03T11:16:48.039Z,10.20
2019-05-03T11:19:19.265Z,10.40
2019-05-03T11:21:50.508Z,10.50
2019-05-03T11:24:23.657Z,10.50
2019-05-03T11:26:56.257Z,10.40
2019-05-03T11:29:27.374Z,10.20
2019-05-03T11:32:10.353Z,10.10
2019-05-03T11:34:50.775Z,10.10
2019-05-03T11:37:41.263Z,10.20
2019-05-03T11:40:12.640Z,10.60
2019-05-03T11:42:44.822Z,10.50
2019-05-03T11:45:16.456Z,10.50
2019-05-03T11:47:48.668Z,10.60
2019-05-03T11:50:20.183Z,10.80
2019-05-03T11:52:51.623Z,10.90
2019-05-03T11:55:22.941Z,11.00
2019-05-03T11:57:56.407Z,11.20
2019-05-03T12:00:32.070Z,11.30
2019-05-03T12:03:11.904Z,11.40
2019-05-03T12:05:45.595Z,11.50
2019-05-03T12:08:17.027Z,11.50
2019-05-03T12:10:57.244Z,11.50
2019-05-03T12:13:30.050Z,11.30
2019-05-03T12:16:14.647Z,11.10
2019-05-03T12:18:48.930Z,11.00
2019-05-03T12:21:10.395Z,11.20
2019-05-03T12:23:42.549Z,11.10
2019-05-03T12:26:17.478Z,11.00
2019-05-03T12:28:48.728Z,11.10
2019-05-03T12:31:33.468Z,11.10
2019-05-03T12:33:55.001Z,11.30
2019-05-03T12:36:26.241Z,11.40
2019-05-03T12:38:59.414Z,11.60
2019-05-03T12:41:30.606Z,11.70
2019-05-03T12:44:01.783Z,11.80
2019-05-03T12:46:33.002Z,11.90
2019-05-03T12:49:05.276Z,12.00
2019-05-03T12:51:36.462Z,12.10
2019-05-03T12:54:07.707Z,12.10
2019-05-03T12:56:41.286Z,12.20
2019-05-03T12:59:26.734Z,12.20
2019-05-03T13:02:10.846Z,12.00
2019-05-03T13:04:44.660Z,12.00
2019-05-03T13:07:35.432Z,12.00
2019-05-03T13:10:07.975Z,11.90
2019-05-03T13:12:49.890Z,11.80
2019-05-03T13:15:14.406Z,11.80
2019-05-03T13:17:46.104Z,11.80
2019-05-03T13:20:17.791Z,11.70
2019-05-03T13:22:49.057Z,11.70
2019-05-03T13:25:20.534Z,11.60
2019-05-03T13:27:54.651Z,11.60
2019-05-03T13:30:25.407Z,11.50
2019-05-03T13:32:56.779Z,11.50
2019-05-03T13:35:27.980Z,11.50
2019-05-03T13:37:59.187Z,11.50
2019-05-03T13:40:30.394Z,11.40
2019-05-03T13:43:05.904Z,11.40
2019-05-03T13:45:35.718Z,11.40
2019-05-03T13:48:07.401Z,11.30
2019-05-03T13:50:39.912Z,11.30
2019-05-03T13:53:12.146Z,11.30
2019-05-03T13:55:44.571Z,11.20
2019-05-03T13:58:16.074Z,10.90
2019-05-03T14:00:47.490Z,10.80
2019-05-03T14:03:19.794Z,10.70
2019-05-03T14:05:51.268Z,10.70
2019-05-03T14:08:22.284Z,10.60
2019-05-03T14:10:55.560Z,10.70
2019-05-03T14:13:26.458Z,10.80
2019-05-03T14:16:00.359Z,10.80
2019-05-03T14:18:31.294Z,10.90
2019-05-03T14:21:21.908Z,10.90
2019-05-03T14:24:12.418Z,10.90
2019-05-03T14:26:44.805Z,11.00
2019-05-03T14:29:16.450Z,11.10
2019-05-03T14:31:48.066Z,11.10
2019-05-03T14:34:19.629Z,11.20
2019-05-03T14:36:51.026Z,11.30
2019-05-03T14:39:22.259Z,11.30
2019-05-03T14:41:55.339Z,10.90
2019-05-03T14:44:26.289Z,11.00
2019-05-03T14:46:59.208Z,11.00
2019-05-03T14:49:30.706Z,11.00
2019-05-03T14:52:01.764Z,11.00
2019-05-03T14:54:34.731Z,11.00
2019-05-03T14:57:29.522Z,10.90
2019-05-03T15:00:07.022Z,10.80
2019-05-03T15:02:58.074Z,10.90
2019-05-03T15:05:29.653Z,11.00
2019-05-03T15:08:00.858Z,11.00
2019-05-03T15:10:35.000Z,11.00
2019-05-03T15:13:07.337Z,10.90
2019-05-03T15:15:38.512Z,11.00
2019-05-03T15:18:09.788Z,11.00
2019-05-03T15:20:41.334Z,11.10
2019-05-03T15:23:14.682Z,10.90
2019-05-03T15:25:46.053Z,10.80
2019-05-03T15:28:17.265Z,10.90
2019-05-03T15:30:48.517Z,11.00
2019-05-03T15:33:20.087Z,10.90
2019-05-03T15:35:51.273Z,11.00
2019-05-03T15:38:22.555Z,10.90
2019-05-03T15:40:54.877Z,10.80
2019-05-03T15:43:54.869Z,10.70
2019-05-03T15:46:33.956Z,10.70
2019-05-03T15:49:06.541Z,10.60
2019-05-03T15:51:37.701Z,10.60
2019-05-03T15:54:09.205Z,10.60
2019-05-03T15:56:40.333Z,10.60
2019-05-03T15:59:11.610Z,10.50
2019-05-03T16:01:43.004Z,10.50
2019-05-03T16:04:14.446Z,10.50
2019-05-03T16:06:46.846Z,10.60
2019-05-03T16:09:20.761Z,10.50
2019-05-03T16:11:56.521Z,10.50
2019-05-03T16:14:27.850Z,10.50
2019-05-03T16:16:59.624Z,10.50
2019-05-03T16:19:31.061Z,10.50
2019-05-03T16:22:04.784Z,10.40
2019-05-03T16:24:36.418Z,10.40
2019-05-03T16:27:17.048Z,10.40
2019-05-03T16:29:48.744Z,10.50
2019-05-03T16:32:20.710Z,10.50
2019-05-03T16:34:52.235Z,10.40
2019-05-03T16:37:25.455Z,10.40
2019-05-03T16:39:57.895Z,10.50
2019-05-03T16:42:29.272Z,10.50
2019-05-03T16:45:00.461Z,10.60
2019-05-03T16:47:32.063Z,10.50
2019-05-03T16:50:06.177Z,10.60
2019-05-03T16:52:37.846Z,10.60
2019-05-03T16:55:09.100Z,10.50
2019-05-03T16:57:40.342Z,10.50
2019-05-03T17:00:12.222Z,10.50
2019-05-03T17:02:44.325Z,10.50
2019-05-03T17:05:37.726Z,10.60
2019-05-03T17:08:34.717Z,10.50
2019-05-03T17:11:08.859Z,10.40
2019-05-03T17:13:40.941Z,10.50
2019-05-03T17:16:14.475Z,10.40
2019-05-03T17:18:45.443Z,10.40
2019-05-03T17:21:16.632Z,10.40
2019-05-03T17:23:48.464Z,10.50
2019-05-03T17:26:19.892Z,10.50
2019-05-03T17:28:51.108Z,10.60
2019-05-03T17:31:24.287Z,10.50
2019-05-03T17:33:57.000Z,10.50
2019-05-03T17:36:29.231Z,10.60
2019-05-03T17:39:05.254Z,10.60
2019-05-03T17:41:47.411Z,10.50
2019-05-03T17:44:23.872Z,10.40
2019-05-03T17:46:55.227Z,10.40
2019-05-03T17:49:28.283Z,10.40
2019-05-03T17:52:21.684Z,10.30
2019-05-03T17:55:12.246Z,10.30
2019-05-03T17:57:55.107Z,10.30
2019-05-03T18:00:49.416Z,10.30
2019-05-03T18:03:22.579Z,10.30
2019-05-03T18:05:59.454Z,10.30
2019-05-03T18:08:36.728Z,10.40
2019-05-03T18:11:10.609Z,10.40
2019-05-03T18:13:41.916Z,10.50
2019-05-03T18:16:14.101Z,10.50
2019-05-03T18:18:45.490Z,10.40
2019-05-03T18:21:16.708Z,10.40
2019-05-03T18:23:48.074Z,10.30
2019-05-03T18:26:19.298Z,10.30
2019-05-03T18:28:51.571Z,10.20
2019-05-03T18:31:25.193Z,10.20
2019-05-03T18:33:56.312Z,10.20
2019-05-03T18:36:27.636Z,10.30
2019-05-03T18:38:59.623Z,10.30
2019-05-03T18:41:31.227Z,10.30
2019-05-03T18:44:19.940Z,10.20
2019-05-03T18:46:57.091Z,10.20
2019-05-03T18:49:29.205Z,10.20
2019-05-03T18:52:00.642Z,10.20
2019-05-03T18:54:31.814Z,10.20
2019-05-03T18:57:04.962Z,10.20
2019-05-03T18:59:35.970Z,10.10
2019-05-03T19:02:07.547Z,10.10
2019-05-03T19:04:49.954Z,10.10
2019-05-03T19:07:40.594Z,10.00
2019-05-03T19:10:35.392Z,10.10
2019-05-03T19:13:20.389Z,9.90
2019-05-03T19:15:52.465Z,9.80
2019-05-03T19:18:32.634Z,9.80
2019-05-03T19:21:04.632Z,9.80
2019-05-03T19:23:36.266Z,9.80
2019-05-03T19:26:07.758Z,9.70
2019-05-03T19:28:39.253Z,9.70
2019-05-03T19:31:10.675Z,9.60
2019-05-03T19:33:42.777Z,9.70
2019-05-03T19:36:14.979Z,9.70
2019-05-03T19:38:46.675Z,9.60
2019-05-03T19:41:18.101Z,9.50
2019-05-03T19:43:49.492Z,9.30
2019-05-03T19:46:21.245Z,9.20
2019-05-03T19:48:54.717Z,9.10
2019-05-03T19:51:26.900Z,8.90
2019-05-03T19:53:58.662Z,8.80
2019-05-03T19:56:30.043Z,8.60
2019-05-03T19:59:05.226Z,8.60
2019-05-03T20:01:52.488Z,8.50
2019-05-03T20:04:42.754Z,8.50
2019-05-03T20:07:45.145Z,8.50
2019-05-03T20:10:18.109Z,8.50
2019-05-03T20:12:52.581Z,8.40
2019-05-03T20:15:23.991Z,8.40
2019-05-03T20:17:59.936Z,8.40
2019-05-03T20:20:28.842Z,8.40
2019-05-03T20:23:00.851Z,8.30
2019-05-03T20:25:32.251Z,8.30
2019-05-03T20:28:05.060Z,8.30
2019-05-03T20:30:36.900Z,8.20
2019-05-03T20:33:08.120Z,8.00
2019-05-03T20:35:39.974Z,8.00
2019-05-03T20:38:12.842Z,8.10
2019-05-03T20:40:45.061Z,8.00
2019-05-03T20:43:44.606Z,8.00
2019-05-03T20:46:19.487Z,7.90
2019-05-03T20:48:53.597Z,8.00
2019-05-03T20:51:25.195Z,7.80
2019-05-03T20:53:56.693Z,7.80
2019-05-03T20:56:27.968Z,7.80
2019-05-03T20:58:59.542Z,7.70
2019-05-03T21:01:30.691Z,7.60
2019-05-03T21:04:01.914Z,7.50
2019-05-03T21:06:35.856Z,7.60
2019-05-03T21:09:08.696Z,7.60
2019-05-03T21:11:41.786Z,7.50
2019-05-03T21:14:15.422Z,7.40
2019-05-03T21:17:05.264Z,7.30
2019-05-03T21:19:44.710Z,7.30
2019-05-03T21:22:19.333Z,7.30
2019-05-03T21:24:56.072Z,7.20
2019-05-03T21:27:27.549Z,7.30
2019-05-03T21:29:58.790Z,7.20
2019-05-03T21:32:30.215Z,7.30
2019-05-03T21:35:01.766Z,7.30
2019-05-03T21:37:34.897Z,7.30
2019-05-03T21:40:07.176Z,7.20
2019-05-03T21:42:38.377Z,7.20
2019-05-03T21:45:11.688Z,7.30
2019-05-03T21:47:48.977Z,7.30
2019-05-03T21:50:21.133Z,7.20
2019-05-03T21:52:54.770Z,7.20
2019-05-03T21:55:27.092Z,7.20
2019-05-03T21:57:58.837Z,7.10
2019-05-03T22:00:45.390Z,7.00
2019-05-03T22:03:17.200Z,7.10
2019-05-03T22:05:55.144Z,7.00
2019-05-03T22:08:22.303Z,6.90
2019-05-03T22:10:55.375Z,6.90
2019-05-03T22:13:26.479Z,6.90
2019-05-03T22:16:15.490Z,6.80
2019-05-03T22:18:47.085Z,6.70
2019-05-03T22:21:25.386Z,6.70
2019-05-03T22:24:21.825Z,6.60
2019-05-03T22:26:56.624Z,6.60
2019-05-03T22:29:28.562Z,6.60
2019-05-03T22:32:00.331Z,6.40
2019-05-03T22:34:31.486Z,6.40
2019-05-03T22:37:02.843Z,6.40
2019-05-03T22:39:34.881Z,6.40
2019-05-03T22:42:06.986Z,6.40
2019-05-03T22:44:38.465Z,6.40
2019-05-03T22:47:10.636Z,6.40
2019-05-03T22:49:41.651Z,6.50
2019-05-03T22:52:15.256Z,6.40
2019-05-03T22:54:46.507Z,6.40
2019-05-03T22:57:17.731Z,6.30
2019-05-03T22:59:49.115Z,6.30
2019-05-03T23:02:20.332Z,6.30
2019-05-03T23:04:51.829Z,6.20
2019-05-03T23:07:24.987Z,6.20
2019-05-03T23:09:57.437Z,6.20
2019-05-03T23:12:28.875Z,6.20
2019-05-03T23:15:00.334Z,6.20
2019-05-03T23:17:32.129Z,6.30
2019-05-03T23:20:08.525Z,6.30
2019-05-03T23:22:40.353Z,6.20
2019-05-03T23:25:11.824Z,6.20
2019-05-03T23:27:44.500Z,6.30
2019-05-03T23:30:16.240Z,6.30
2019-05-03T23:32:48.097Z,6.40
2019-05-03T23:35:19.284Z,6.30
2019-05-03T23:37:50.580Z,6.30
2019-05-03T23:40:22.050Z,6.30
2019-05-03T23:42:54.459Z,6.20
2019-05-03T23:45:26.046Z,6.30
2019-05-03T23:47:57.502Z,6.30
2019-05-03T23:50:28.716Z,6.30
2019-05-03T23:53:01.235Z,6.30
2019-05-03T23:55:38.286Z,6.40
2019-05-03T23:58:09.795Z,6.50
